createdAt,value
2017-08-07T00:00:31.752Z,14.20
2017-08-07T00:02:59.346Z,14.30
2017-08-07T00:05:26.976Z,14.30
2017-08-07T00:07:54.572Z,14.30
2017-08-07T00:10:23.141Z,14.30
2017-08-07T00:12:50.711Z,14.30
2017-08-07T00:15:18.348Z,14.40
2017-08-07T00:17:45.877Z,14.30
2017-08-07T00:20:14.225Z,14.40
2017-08-07T00:22:41.789Z,14.30
2017-08-07T00:25:09.369Z,14.40
2017-08-07T00:27:36.924Z,14.40
2017-08-07T00:30:05.050Z,14.40
2017-08-07T00:32:32.623Z,14.40
2017-08-07T00:35:00.274Z,14.40
2017-08-07T00:37:28.743Z,14.40
2017-08-07T00:39:57.012Z,14.40
2017-08-07T00:42:24.990Z,14.30
2017-08-07T00:44:54.074Z,14.30
2017-08-07T00:47:21.741Z,14.20
2017-08-07T00:49:50.491Z,14.30
2017-08-07T00:52:20.047Z,14.30
2017-08-07T00:54:47.650Z,14.20
2017-08-07T00:57:15.233Z,14.30
2017-08-07T00:59:42.922Z,14.30
2017-08-07T01:02:10.537Z,14.20
2017-08-07T01:04:38.652Z,14.20
2017-08-07T01:07:06.251Z,14.20
2017-08-07T01:09:33.848Z,14.20
2017-08-07T01:12:08.089Z,14.20
2017-08-07T01:14:35.772Z,14.20
2017-08-07T01:17:04.380Z,14.30
2017-08-07T01:19:32.031Z,14.30
2017-08-07T01:21:59.605Z,14.30
2017-08-07T01:24:27.188Z,14.30
2017-08-07T01:26:55.514Z,14.30
2017-08-07T01:29:23.121Z,14.30
2017-08-07T01:31:50.672Z,14.30
2017-08-07T01:34:19.002Z,14.40
2017-08-07T01:36:48.351Z,14.40
2017-08-07T01:39:16.075Z,14.30
2017-08-07T01:41:43.676Z,14.30
2017-08-07T01:44:11.839Z,14.30
2017-08-07T01:46:39.389Z,14.30
2017-08-07T01:49:06.969Z,14.30
2017-08-07T01:51:34.525Z,14.30
2017-08-07T01:54:02.106Z,14.30
2017-08-07T01:56:29.717Z,14.20
2017-08-07T01:58:58.137Z,14.20
2017-08-07T02:01:26.490Z,14.20
2017-08-07T02:03:54.932Z,14.10
2017-08-07T02:06:24.440Z,14.20
2017-08-07T02:08:51.994Z,14.20
2017-08-07T02:11:19.578Z,14.20
2017-08-07T02:13:47.142Z,14.20
2017-08-07T02:16:14.776Z,14.20
2017-08-07T02:18:43.077Z,14.20
2017-08-07T02:21:12.669Z,14.20
2017-08-07T02:23:40.755Z,14.20
2017-08-07T02:26:09.394Z,14.20
2017-08-07T02:28:36.989Z,14.20
2017-08-07T02:31:04.599Z,14.30
2017-08-07T02:33:32.160Z,14.30
2017-08-07T02:35:59.745Z,14.30
2017-08-07T02:38:27.359Z,14.30
2017-08-07T02:40:55.714Z,14.30
2017-08-07T02:43:23.318Z,14.30
2017-08-07T02:45:51.643Z,14.40
2017-08-07T02:48:19.487Z,14.30
2017-08-07T02:50:50.045Z,14.40
2017-08-07T02:53:17.667Z,14.40
2017-08-07T02:55:45.239Z,14.40
2017-08-07T02:58:12.836Z,14.40
2017-08-07T03:00:40.480Z,14.40
2017-08-07T03:03:08.149Z,14.30
2017-08-07T03:05:35.822Z,14.30
2017-08-07T03:08:03.441Z,14.30
2017-08-07T03:10:32.616Z,14.30
2017-08-07T03:13:00.214Z,14.40
2017-08-07T03:15:27.774Z,14.30
2017-08-07T03:17:55.330Z,14.30
2017-08-07T03:20:22.926Z,14.30
2017-08-07T03:22:51.264Z,14.30
2017-08-07T03:25:18.888Z,14.20
2017-08-07T03:27:46.508Z,14.20
2017-08-07T03:30:14.092Z,14.20
2017-08-07T03:32:42.433Z,14.20
2017-08-07T03:35:10.023Z,14.10
2017-08-07T03:37:39.186Z,14.10
2017-08-07T03:40:06.742Z,14.10
2017-08-07T03:42:34.353Z,14.10
2017-08-07T03:45:01.911Z,14.10
2017-08-07T03:47:30.033Z,14.10
2017-08-07T03:49:57.595Z,14.20
2017-08-07T03:52:25.177Z,14.10
2017-08-07T03:54:52.734Z,14.10
2017-08-07T03:57:21.051Z,14.10
2017-08-07T03:59:48.632Z,14.00
2017-08-07T04:02:16.209Z,14.10
2017-08-07T04:04:43.785Z,14.10
2017-08-07T04:07:11.354Z,14.10
2017-08-07T04:09:38.923Z,14.10
2017-08-07T04:12:07.250Z,13.90
2017-08-07T04:14:34.826Z,13.90
2017-08-07T04:17:02.384Z,13.80
2017-08-07T04:19:30.490Z,13.80
2017-08-07T04:21:58.080Z,13.80
2017-08-07T04:24:26.435Z,13.90
2017-08-07T04:26:54.004Z,14.00
2017-08-07T04:29:21.566Z,14.10
2017-08-07T04:31:49.104Z,14.10
2017-08-07T04:34:16.728Z,14.30
2017-08-07T04:36:45.065Z,14.40
2017-08-07T04:39:12.652Z,14.40
2017-08-07T04:41:40.521Z,14.40
2017-08-07T04:44:08.101Z,14.60
2017-08-07T04:46:35.641Z,14.70
2017-08-07T04:49:03.197Z,14.70
2017-08-07T04:51:30.777Z,14.80
2017-08-07T04:53:58.341Z,14.80
2017-08-07T04:56:25.938Z,14.80
2017-08-07T04:58:54.254Z,15.30
2017-08-07T05:01:21.833Z,15.30
2017-08-07T05:03:49.374Z,15.40
2017-08-07T05:06:16.973Z,15.30
2017-08-07T05:08:44.537Z,15.30
2017-08-07T05:11:12.112Z,15.40
2017-08-07T05:13:39.697Z,15.40
2017-08-07T05:16:07.299Z,15.50
2017-08-07T05:18:34.877Z,15.80
2017-08-07T05:21:02.425Z,15.90
2017-08-07T05:23:30.042Z,16.00
2017-08-07T05:25:57.613Z,16.00
2017-08-07T05:28:25.185Z,16.10
2017-08-07T05:30:52.728Z,16.20
2017-08-07T05:33:20.289Z,16.70
2017-08-07T05:35:47.852Z,16.80
2017-08-07T05:38:15.420Z,18.30
2017-08-07T05:40:43.307Z,19.70
2017-08-07T05:43:10.890Z,19.30
2017-08-07T05:45:38.455Z,18.90
2017-08-07T05:48:06.034Z,18.50
2017-08-07T05:50:34.360Z,17.70
2017-08-07T05:53:01.895Z,17.70
2017-08-07T05:55:29.475Z,17.50
2017-08-07T05:57:57.017Z,17.30
2017-08-07T06:00:25.391Z,16.90
2017-08-07T06:02:53.708Z,16.70
2017-08-07T06:05:21.292Z,16.70
2017-08-07T06:07:49.586Z,17.00
2017-08-07T06:10:17.153Z,17.00
2017-08-07T06:12:44.707Z,17.60
2017-08-07T06:15:12.292Z,18.20
2017-08-07T06:17:39.843Z,20.30
2017-08-07T06:20:07.420Z,24.10
2017-08-07T06:22:35.022Z,25.00
2017-08-07T06:25:02.595Z,27.00
2017-08-07T06:27:30.225Z,25.00
2017-08-07T06:29:57.771Z,23.60
2017-08-07T06:32:25.357Z,22.50
2017-08-07T06:34:52.957Z,23.90
2017-08-07T06:37:20.553Z,24.90
2017-08-07T06:39:48.131Z,23.20
2017-08-07T06:42:15.716Z,23.50
2017-08-07T06:44:43.266Z,23.20
2017-08-07T06:47:10.827Z,25.10
2017-08-07T06:52:15.213Z,28.90
2017-08-07T06:54:42.769Z,29.40
2017-08-07T06:57:10.298Z,29.00
2017-08-07T06:59:37.924Z,27.40
2017-08-07T07:02:05.490Z,26.70
2017-08-07T07:04:33.080Z,25.90
2017-08-07T07:07:00.640Z,25.20
2017-08-07T07:09:28.232Z,24.10
2017-08-07T07:11:55.842Z,23.90
2017-08-07T07:14:24.184Z,24.00
2017-08-07T07:16:51.726Z,24.00
2017-08-07T07:19:19.322Z,24.20
2017-08-07T07:21:46.876Z,23.10
2017-08-07T07:24:14.439Z,23.50
2017-08-07T07:26:42.528Z,24.40
2017-08-07T07:29:10.153Z,24.20
2017-08-07T07:31:37.681Z,23.80
2017-08-07T07:34:06.002Z,24.30
2017-08-07T07:36:33.589Z,24.30
2017-08-07T07:39:01.129Z,24.70
2017-08-07T07:41:28.690Z,24.50
2017-08-07T07:43:56.237Z,24.40
2017-08-07T07:46:24.584Z,23.00
2017-08-07T07:48:52.117Z,23.00
2017-08-07T07:51:19.762Z,22.80
2017-08-07T07:53:47.347Z,23.00
2017-08-07T07:56:14.905Z,23.50
2017-08-07T07:58:42.540Z,23.60
2017-08-07T08:01:10.878Z,22.90
2017-08-07T08:03:38.427Z,22.90
2017-08-07T08:06:06.001Z,23.40
2017-08-07T08:08:33.534Z,22.80
2017-08-07T08:11:01.097Z,22.90
2017-08-07T08:13:28.651Z,23.40
2017-08-07T08:15:56.173Z,23.10
2017-08-07T08:18:23.731Z,23.70
2017-08-07T08:20:51.273Z,24.10
2017-08-07T08:23:18.844Z,24.70
2017-08-07T08:25:46.403Z,25.10
2017-08-07T08:28:13.965Z,24.90
2017-08-07T08:30:41.522Z,24.80
2017-08-07T08:33:09.106Z,25.00
2017-08-07T08:35:36.637Z,24.90
2017-08-07T08:38:04.197Z,24.60
2017-08-07T08:40:32.554Z,24.10
2017-08-07T08:43:00.948Z,24.20
2017-08-07T08:45:29.265Z,24.40
2017-08-07T08:47:56.811Z,24.40
2017-08-07T08:50:25.149Z,24.80
2017-08-07T08:52:52.693Z,24.80
2017-08-07T08:55:20.270Z,25.30
2017-08-07T08:57:47.797Z,25.60
2017-08-07T09:00:16.158Z,25.50
2017-08-07T09:02:44.462Z,25.50
2017-08-07T09:05:12.013Z,25.50
2017-08-07T09:07:40.322Z,25.50
2017-08-07T09:10:07.896Z,25.50
2017-08-07T09:12:35.463Z,25.20
2017-08-07T09:15:03.041Z,25.20
2017-08-07T09:17:30.573Z,25.20
2017-08-07T09:19:58.128Z,25.60
2017-08-07T09:22:25.733Z,26.00
2017-08-07T09:24:53.289Z,25.80
2017-08-07T09:27:21.666Z,26.40
2017-08-07T09:29:49.217Z,26.40
2017-08-07T09:32:16.768Z,26.40
2017-08-07T09:34:44.330Z,27.00
2017-08-07T09:37:12.725Z,26.40
2017-08-07T09:39:41.032Z,26.60
2017-08-07T09:42:08.590Z,26.60
2017-08-07T09:44:36.150Z,26.80
2017-08-07T09:47:04.610Z,27.00
2017-08-07T09:49:32.904Z,26.60
2017-08-07T09:52:00.457Z,26.60
2017-08-07T09:54:28.798Z,27.20
2017-08-07T09:56:56.336Z,27.20
2017-08-07T09:59:24.013Z,27.30
2017-08-07T10:01:51.582Z,27.60
2017-08-07T10:04:21.034Z,27.50
2017-08-07T10:06:48.576Z,27.50
2017-08-07T10:09:16.487Z,27.80
2017-08-07T10:11:44.826Z,27.40
2017-08-07T10:14:12.376Z,27.40
2017-08-07T10:16:40.044Z,26.80
2017-08-07T10:19:08.595Z,26.10
2017-08-07T10:21:36.186Z,26.40
2017-08-07T10:24:03.748Z,26.30
2017-08-07T10:26:31.319Z,26.60
2017-08-07T10:28:58.867Z,26.60
2017-08-07T10:31:26.431Z,26.10
2017-08-07T10:33:54.011Z,26.10
2017-08-07T10:36:21.581Z,26.60
2017-08-07T10:38:49.165Z,26.40
2017-08-07T10:41:16.714Z,27.10
2017-08-07T10:43:44.293Z,27.80
2017-08-07T10:46:11.832Z,28.10
2017-08-07T10:48:39.470Z,28.30
2017-08-07T10:51:07.787Z,28.50
2017-08-07T10:53:35.883Z,28.50
2017-08-07T10:56:03.417Z,29.00
2017-08-07T10:58:30.978Z,28.60
2017-08-07T11:00:58.544Z,27.10
2017-08-07T11:03:26.149Z,26.90
2017-08-07T11:05:53.714Z,26.40
2017-08-07T11:08:21.324Z,26.90
2017-08-07T11:10:48.858Z,27.70
2017-08-07T11:13:16.954Z,28.30
2017-08-07T11:15:44.504Z,28.30
2017-08-07T11:18:12.037Z,27.50
2017-08-07T11:20:39.612Z,27.70
2017-08-07T11:23:07.184Z,28.30
2017-08-07T11:25:34.745Z,28.10
2017-08-07T11:28:02.311Z,27.50
2017-08-07T11:30:33.944Z,27.80
2017-08-07T11:33:01.819Z,28.40
2017-08-07T11:35:29.523Z,28.70
2017-08-07T11:37:57.083Z,28.40
2017-08-07T11:40:25.461Z,28.30
2017-08-07T11:42:53.002Z,28.30
2017-08-07T11:45:20.580Z,28.40
2017-08-07T11:47:48.160Z,29.10
2017-08-07T11:50:15.709Z,29.20
2017-08-07T11:52:43.290Z,29.20
2017-08-07T11:55:11.002Z,29.20
2017-08-07T11:57:38.550Z,29.20
2017-08-07T12:00:06.836Z,29.60
2017-08-07T12:02:35.222Z,29.80
2017-08-07T12:05:03.523Z,27.90
2017-08-07T12:07:31.081Z,27.90
2017-08-07T12:09:58.614Z,26.20
2017-08-07T12:12:26.170Z,26.00
2017-08-07T12:14:53.720Z,26.10
2017-08-07T12:17:21.441Z,26.10
2017-08-07T12:19:50.538Z,26.50
2017-08-07T12:22:18.082Z,27.50
2017-08-07T12:24:46.480Z,27.90
2017-08-07T12:27:14.826Z,27.00
2017-08-07T12:29:42.409Z,26.90
2017-08-07T12:32:10.727Z,28.10
2017-08-07T12:34:38.933Z,28.10
2017-08-07T12:37:06.458Z,28.40
2017-08-07T12:39:34.028Z,29.20
2017-08-07T12:42:01.562Z,29.20
2017-08-07T12:44:29.911Z,29.10
2017-08-07T12:46:58.182Z,29.10
2017-08-07T12:49:25.749Z,28.90
2017-08-07T12:51:53.312Z,28.90
2017-08-07T12:54:20.895Z,28.70
2017-08-07T12:56:48.523Z,28.00
2017-08-07T12:59:16.075Z,27.80
2017-08-07T13:01:45.329Z,27.30
2017-08-07T13:04:12.872Z,27.20
2017-08-07T13:06:40.447Z,28.00
2017-08-07T13:09:09.242Z,28.40
2017-08-07T13:11:36.906Z,28.80
2017-08-07T13:14:04.440Z,29.00
2017-08-07T13:16:32.027Z,28.90
2017-08-07T13:18:59.568Z,28.60
2017-08-07T13:21:27.131Z,29.00
2017-08-07T13:23:54.673Z,29.20
2017-08-07T13:26:23.033Z,28.60
2017-08-07T13:28:50.569Z,28.60
2017-08-07T13:31:18.131Z,28.90
2017-08-07T13:33:45.726Z,29.10
2017-08-07T13:36:13.274Z,28.60
2017-08-07T13:38:40.845Z,28.50
2017-08-07T13:41:08.386Z,28.20
2017-08-07T13:43:35.945Z,28.60
2017-08-07T13:46:03.489Z,28.80
2017-08-07T13:48:31.911Z,29.10
2017-08-07T13:50:59.443Z,29.10
2017-08-07T13:53:27.049Z,29.50
2017-08-07T13:55:54.615Z,29.40
2017-08-07T13:58:22.180Z,29.50
2017-08-07T14:00:49.797Z,29.20
2017-08-07T14:03:18.118Z,27.80
2017-08-07T14:05:45.697Z,27.70
2017-08-07T14:08:13.227Z,27.50
2017-08-07T14:10:40.772Z,28.10
2017-08-07T14:13:09.076Z,28.80
2017-08-07T14:15:36.630Z,28.70
2017-08-07T14:18:04.197Z,29.50
2017-08-07T14:20:31.759Z,29.90
2017-08-07T14:22:59.301Z,29.60
2017-08-07T14:25:27.632Z,29.60
2017-08-07T14:27:55.177Z,29.60
2017-08-07T14:30:26.641Z,28.60
2017-08-07T14:32:56.170Z,27.80
2017-08-07T14:35:23.706Z,27.40
2017-08-07T14:37:51.266Z,27.50
2017-08-07T14:40:18.809Z,28.20
2017-08-07T14:42:47.149Z,27.90
2017-08-07T14:45:14.809Z,27.80
2017-08-07T14:47:42.424Z,27.50
2017-08-07T14:50:10.743Z,27.40
2017-08-07T14:52:38.312Z,27.40
2017-08-07T14:55:05.875Z,27.70
2017-08-07T14:57:33.441Z,28.00
2017-08-07T15:00:00.981Z,28.40
2017-08-07T15:02:28.574Z,28.50
2017-08-07T15:04:56.163Z,28.60
2017-08-07T15:07:23.730Z,28.80
2017-08-07T15:09:51.289Z,28.80
2017-08-07T15:12:18.897Z,29.00
2017-08-07T15:14:47.216Z,28.70
2017-08-07T15:17:14.763Z,28.70
2017-08-07T15:19:42.333Z,28.60
2017-08-07T15:22:09.884Z,28.40
2017-08-07T15:24:38.209Z,28.10
2017-08-07T15:27:05.758Z,28.00
2017-08-07T15:29:33.327Z,27.80
2017-08-07T15:32:00.887Z,27.40
2017-08-07T15:34:28.457Z,27.30
2017-08-07T15:36:56.015Z,27.30
2017-08-07T15:39:23.610Z,27.30
2017-08-07T15:41:51.156Z,26.70
2017-08-07T15:44:19.712Z,26.80
2017-08-07T15:46:47.294Z,27.30
2017-08-07T15:49:14.832Z,27.50
2017-08-07T15:51:42.422Z,27.50
2017-08-07T15:54:09.950Z,27.80
2017-08-07T15:56:38.286Z,27.70
2017-08-07T15:59:05.825Z,27.70
2017-08-07T16:01:33.368Z,27.50
2017-08-07T16:04:01.691Z,27.40
2017-08-07T16:06:29.229Z,27.40
2017-08-07T16:08:56.800Z,27.40
2017-08-07T16:11:24.354Z,27.20
2017-08-07T16:13:51.914Z,27.20
2017-08-07T16:16:19.438Z,27.00
2017-08-07T16:18:47.043Z,26.60
2017-08-07T16:21:14.648Z,26.60
2017-08-07T16:23:42.173Z,26.80
2017-08-07T16:26:10.500Z,26.90
2017-08-07T16:28:38.037Z,26.90
2017-08-07T16:31:05.607Z,26.90
2017-08-07T16:33:33.162Z,26.60
2017-08-07T16:36:00.729Z,26.50
2017-08-07T16:38:29.458Z,26.50
2017-08-07T16:40:57.066Z,26.40
2017-08-07T16:43:25.410Z,26.20
2017-08-07T16:45:52.970Z,26.20
2017-08-07T16:48:20.509Z,26.10
2017-08-07T16:50:48.061Z,25.90
2017-08-07T16:53:15.630Z,25.70
2017-08-07T16:55:43.174Z,25.60
2017-08-07T16:58:14.489Z,25.60
2017-08-07T17:00:45.532Z,25.60
2017-08-07T17:03:14.706Z,25.50
2017-08-07T17:05:42.234Z,25.50
2017-08-07T17:08:09.998Z,25.20
2017-08-07T17:10:38.326Z,24.90
2017-08-07T17:13:05.896Z,24.90
2017-08-07T17:15:33.640Z,24.60
2017-08-07T17:18:02.147Z,24.40
2017-08-07T17:20:29.695Z,24.20
2017-08-07T17:22:57.243Z,24.10
2017-08-07T17:25:24.814Z,24.00
2017-08-07T17:27:52.483Z,23.90
2017-08-07T17:30:20.047Z,23.80
2017-08-07T17:32:47.587Z,23.70
2017-08-07T17:35:15.937Z,23.50
2017-08-07T17:37:43.482Z,23.50
2017-08-07T17:40:11.057Z,23.40
2017-08-07T17:42:38.609Z,23.30
2017-08-07T17:45:06.168Z,23.30
2017-08-07T17:47:33.705Z,23.20
2017-08-07T17:50:02.053Z,23.10
2017-08-07T17:52:29.589Z,23.10
2017-08-07T17:54:57.457Z,23.10
2017-08-07T17:57:25.029Z,22.90
2017-08-07T17:59:52.594Z,22.90
2017-08-07T18:02:20.178Z,22.70
2017-08-07T18:04:47.749Z,22.70
2017-08-07T18:07:15.313Z,22.50
2017-08-07T18:09:43.063Z,22.40
2017-08-07T18:12:10.781Z,22.20
2017-08-07T18:14:38.331Z,22.10
2017-08-07T18:17:05.914Z,21.90
2017-08-07T18:19:34.207Z,21.60
2017-08-07T18:22:01.835Z,21.60
2017-08-07T18:24:29.384Z,21.40
2017-08-07T18:26:56.969Z,21.20
2017-08-07T18:29:25.289Z,20.80
2017-08-07T18:31:52.836Z,20.80
2017-08-07T18:34:21.550Z,20.60
2017-08-07T18:36:49.095Z,20.60
2017-08-07T18:39:16.646Z,20.40
2017-08-07T18:41:44.174Z,20.30
2017-08-07T18:44:11.753Z,20.20
2017-08-07T18:46:39.313Z,20.00
2017-08-07T18:49:06.867Z,19.90
2017-08-07T18:51:35.122Z,19.90
2017-08-07T18:54:02.748Z,19.70
2017-08-07T18:56:31.074Z,19.50
2017-08-07T18:59:00.710Z,19.60
2017-08-07T19:01:28.341Z,19.50
2017-08-07T19:03:55.881Z,19.30
2017-08-07T19:06:24.361Z,19.00
2017-08-07T19:08:51.910Z,19.00
2017-08-07T19:11:19.480Z,18.80
2017-08-07T19:13:47.057Z,18.70
2017-08-07T19:16:14.592Z,18.60
2017-08-07T19:18:42.124Z,18.60
2017-08-07T19:21:10.111Z,18.40
2017-08-07T19:23:37.687Z,18.30
2017-08-07T19:26:07.902Z,18.20
2017-08-07T19:28:35.972Z,18.10
2017-08-07T19:31:03.661Z,18.10
2017-08-07T19:33:31.202Z,18.00
2017-08-07T19:35:58.977Z,17.90
2017-08-07T19:38:27.533Z,17.80
2017-08-07T19:40:55.615Z,17.80
2017-08-07T19:43:23.185Z,17.70
2017-08-07T19:45:50.770Z,17.70
2017-08-07T19:48:19.585Z,17.60
2017-08-07T19:50:48.907Z,17.40
2017-08-07T19:53:18.692Z,17.40
2017-08-07T19:55:46.273Z,17.30
2017-08-07T19:58:14.674Z,17.10
2017-08-07T20:00:43.290Z,17.10
2017-08-07T20:03:11.032Z,17.10
2017-08-07T20:05:38.615Z,17.10
2017-08-07T20:08:07.046Z,17.10
2017-08-07T20:10:34.764Z,17.00
2017-08-07T20:13:02.938Z,16.90
2017-08-07T20:15:31.993Z,16.90
2017-08-07T20:17:59.934Z,16.80
2017-08-07T20:20:33.340Z,16.70
2017-08-07T20:23:00.880Z,16.60
2017-08-07T20:25:29.290Z,16.60
2017-08-07T20:27:58.262Z,16.50
2017-08-07T20:30:25.859Z,16.40
2017-08-07T20:32:56.256Z,16.40
2017-08-07T20:35:25.590Z,16.30
2017-08-07T20:37:53.193Z,16.30
2017-08-07T20:40:20.877Z,16.20
2017-08-07T20:42:49.030Z,16.10
2017-08-07T20:45:16.629Z,16.10
2017-08-07T20:47:44.205Z,16.10
2017-08-07T20:50:12.514Z,15.90
2017-08-07T20:52:44.447Z,15.90
2017-08-07T20:55:13.021Z,15.80
2017-08-07T20:57:41.372Z,15.80
2017-08-07T21:00:08.926Z,15.70
2017-08-07T21:02:36.460Z,15.70
2017-08-07T21:05:05.267Z,15.60
2017-08-07T21:07:33.347Z,15.60
2017-08-07T21:10:01.383Z,15.50
2017-08-07T21:12:28.919Z,15.50
2017-08-07T21:14:57.255Z,15.50
2017-08-07T21:17:27.538Z,15.40
2017-08-07T21:19:55.413Z,15.40
2017-08-07T21:22:22.958Z,15.40
2017-08-07T21:24:50.547Z,15.40
2017-08-07T21:27:19.430Z,15.40
2017-08-07T21:29:46.992Z,15.30
2017-08-07T21:32:15.361Z,15.20
2017-08-07T21:34:42.941Z,15.20
2017-08-07T21:37:13.412Z,15.10
2017-08-07T21:39:42.679Z,15.00
2017-08-07T21:42:10.235Z,14.90
2017-08-07T21:44:37.785Z,15.00
2017-08-07T21:47:06.221Z,14.90
2017-08-07T21:49:33.768Z,14.90
2017-08-07T21:52:01.344Z,14.80
2017-08-07T21:54:28.885Z,14.80
2017-08-07T21:56:59.728Z,14.70
2017-08-07T21:59:28.140Z,14.60
2017-08-07T22:01:58.762Z,14.60
2017-08-07T22:04:26.319Z,14.70
2017-08-07T22:06:53.910Z,14.70
2017-08-07T22:09:22.094Z,14.70
2017-08-07T22:11:50.896Z,14.70
2017-08-07T22:14:18.438Z,14.70
2017-08-07T22:16:45.972Z,14.60
2017-08-07T22:19:14.318Z,14.50
2017-08-07T22:21:41.854Z,14.50
2017-08-07T22:24:09.451Z,14.40
2017-08-07T22:26:37.373Z,14.40
2017-08-07T22:29:05.496Z,14.30
2017-08-07T22:31:33.874Z,14.30
2017-08-07T22:34:01.436Z,14.20
2017-08-07T22:36:29.036Z,14.20
2017-08-07T22:38:56.769Z,14.10
2017-08-07T22:41:25.899Z,14.10
2017-08-07T22:43:54.025Z,14.00
2017-08-07T22:46:29.566Z,13.90
2017-08-07T22:48:59.062Z,13.80
2017-08-07T22:51:31.208Z,13.80
2017-08-07T22:54:02.945Z,13.80
2017-08-07T22:56:30.669Z,13.80
2017-08-07T22:59:13.342Z,13.70
2017-08-07T23:01:46.964Z,13.70
2017-08-07T23:04:26.472Z,13.60
2017-08-07T23:06:56.858Z,13.60
2017-08-07T23:17:23.234Z,13.30
2017-08-07T23:23:36.202Z,13.30
2017-08-07T23:26:03.793Z,13.30
2017-08-07T23:28:31.480Z,13.30
2017-08-07T23:31:00.531Z,13.40
2017-08-07T23:33:31.382Z,13.40
2017-08-07T23:36:16.152Z,13.30
2017-08-07T23:41:25.438Z,13.30
2017-08-07T23:43:53.199Z,13.20
2017-08-07T23:46:24.619Z,13.20
2017-08-07T23:48:52.205Z,13.10
2017-08-07T23:51:24.017Z,13.00
2017-08-07T23:53:53.633Z,12.90
2017-08-07T23:58:59.053Z,12.80
